SBNT/NAT METAR and TAF weather

Enter ICAO airport designator
Station Type Date Time Source
SBNT METAR 2021/05/10 22:00 UTC NOAA

SBNT 102200Z 15008KT 9999 FEW023 26/23 Q1012


Station Type Date Time Source
SBNT Decoded METAR 2021/05/10 22:00 UTC NOAA

Natal Aeroporto, Brazil (SBNT) 05-55S 035-15W 49M
May 10, 2021 - 06:00 PM EDT / 2021.05.10 2200 UTC
Wind: from the SSE (150 degrees) at 9 MPH (8 KT):0
Visibility: greater than 7 mile(s):0
Sky conditions: mostly clear
Temperature: 78 F (26 C)
Dew Point: 73 F (23 C)
Relative Humidity: 83%
Pressure (altimeter): 29.88 in. Hg (1012 hPa)
ob: SBNT 102200Z 15008KT 9999 FEW023 26/23 Q1012
cycle: 22

Station Type Date Time Source
SBNT TAF 2021/05/10 18:03 UTC NOAA

TAF TAF SBNT 101425Z 1018/1106 15015KT 9999 SCT025 FEW035TCU TX30/1018Z TN24/1106Z
BECMG 1020/1022 17010KT SCT025
BECMG 1022/1024 13010KT FEW020
BECMG 1103/1105 18007KT 6000 RA SCT010 BKN030
RMK PFV

Example: see airport list